Airport View

Enter AWOS ICAO identifier for current METAR.

ex. KFNL

KCQF 120615Z AUTO 02007KT 10SM BKN110 06/00 A3036 RMK AO2

12 Dec 2019 06:41

Frequency: 118.425

Phone: 251-928-3242

Other Area AWOS: KBFM - KJKA - KMOB - KNPA

TAF KBFM 120528Z 1206/1306 03010KT P6SM FEW060 FM121500 06008KT P6SM BKN025 FM130300 05011KT P6SM -RA OVC020